createdAt,value
2022-09-25T00:03:04.067Z,5.93
2022-09-25T00:08:10.132Z,5.83
2022-09-25T00:13:13.944Z,6.13
2022-09-25T00:18:37.993Z,6.03
2022-09-25T00:23:44.971Z,6.50
2022-09-25T00:28:48.653Z,5.67
2022-09-25T00:33:52.784Z,6.23
2022-09-25T00:38:58.612Z,5.90
2022-09-25T00:44:04.679Z,6.50
2022-09-25T00:49:14.291Z,6.30
2022-09-25T00:54:22.636Z,6.33
2022-09-25T00:59:31.032Z,6.50
2022-09-25T01:04:38.312Z,5.70
2022-09-25T01:09:43.826Z,6.10
2022-09-25T01:14:47.352Z,5.60
2022-09-25T01:20:05.308Z,6.00
2022-09-25T01:25:17.546Z,6.30
2022-09-25T01:30:23.030Z,6.27
2022-09-25T01:35:37.912Z,6.77
2022-09-25T01:40:48.142Z,5.90
2022-09-25T01:45:56.989Z,6.30
2022-09-25T01:51:04.352Z,6.27
2022-09-25T01:56:10.771Z,5.43
2022-09-25T02:01:22.554Z,5.73
2022-09-25T02:06:26.796Z,5.57
2022-09-25T02:11:35.093Z,5.90
2022-09-25T02:16:44.428Z,6.00
2022-09-25T02:21:56.356Z,5.10
2022-09-25T02:26:59.924Z,5.23
2022-09-25T02:32:10.008Z,5.53
2022-09-25T02:37:14.192Z,4.93
2022-09-25T02:42:27.812Z,5.60
2022-09-25T02:47:39.338Z,5.87
2022-09-25T02:52:48.310Z,5.63
2022-09-25T02:57:57.857Z,5.40
2022-09-25T03:03:04.346Z,5.97
2022-09-25T03:08:25.900Z,5.80
2022-09-25T03:13:34.254Z,5.60
2022-09-25T03:18:39.364Z,5.20
2022-09-25T03:23:42.937Z,5.17
2022-09-25T03:28:48.127Z,5.50
2022-09-25T03:33:53.052Z,5.07
2022-09-25T03:38:59.258Z,5.37
2022-09-25T03:44:11.730Z,5.80
2022-09-25T03:49:19.684Z,5.50
2022-09-25T03:54:31.094Z,5.73
2022-09-25T03:59:42.910Z,5.60
2022-09-25T04:05:01.185Z,5.93
2022-09-25T04:10:12.609Z,6.40
2022-09-25T04:15:23.366Z,5.73
2022-09-25T04:20:28.674Z,5.80
2022-09-25T04:25:32.225Z,7.07
2022-09-25T04:30:35.805Z,8.50
2022-09-25T04:35:40.994Z,6.97
2022-09-25T04:40:46.304Z,6.43
2022-09-25T04:45:51.924Z,6.40
2022-09-25T04:50:58.428Z,6.40
2022-09-25T04:56:03.282Z,7.10
2022-09-25T05:01:09.100Z,6.87
2022-09-25T05:06:13.999Z,7.30
2022-09-25T05:11:17.578Z,6.53
2022-09-25T05:16:21.657Z,6.47
2022-09-25T05:21:26.628Z,13.93
2022-09-25T05:26:31.176Z,7.13
2022-09-25T05:31:34.827Z,6.90
2022-09-25T05:36:39.918Z,7.00
2022-09-25T05:41:43.329Z,6.67
2022-09-25T05:46:46.823Z,6.33
2022-09-25T05:51:51.857Z,5.93
2022-09-25T05:56:55.435Z,6.73
2022-09-25T06:01:59.282Z,7.40
2022-09-25T06:07:04.576Z,7.03
2022-09-25T06:12:08.117Z,8.77
2022-09-25T06:17:14.648Z,8.40
2022-09-25T06:22:19.668Z,7.57
2022-09-25T06:27:23.568Z,7.47
2022-09-25T06:32:27.257Z,9.07
2022-09-25T06:37:32.453Z,16.73
2022-09-25T06:42:36.147Z,9.33
2022-09-25T06:47:39.669Z,7.63
2022-09-25T06:52:45.748Z,9.50
2022-09-25T06:57:49.202Z,9.10
2022-09-25T07:03:09.826Z,8.63
2022-09-25T07:08:16.352Z,9.03
2022-09-25T07:13:24.639Z,9.23
2022-09-25T07:18:29.327Z,8.70
2022-09-25T07:23:34.547Z,8.00
2022-09-25T07:28:38.558Z,7.43
2022-09-25T07:33:42.086Z,9.53
2022-09-25T07:38:51.134Z,11.23
2022-09-25T07:44:11.929Z,10.27
2022-09-25T07:49:19.867Z,10.50
2022-09-25T07:54:25.133Z,9.27
2022-09-25T07:59:28.574Z,8.37
2022-09-25T08:04:32.220Z,7.53
2022-09-25T08:09:37.257Z,7.63
2022-09-25T08:14:42.011Z,7.83
2022-09-25T08:19:45.469Z,7.70
2022-09-25T08:24:50.387Z,10.23
2022-09-25T08:29:53.811Z,13.37
2022-09-25T08:34:57.280Z,9.73
2022-09-25T08:40:02.536Z,14.23
2022-09-25T08:45:30.517Z,13.07
2022-09-25T08:50:34.651Z,7.70
2022-09-25T08:56:00.278Z,7.00
2022-09-25T09:01:07.823Z,6.40
2022-09-25T09:06:15.992Z,6.20
2022-09-25T09:11:26.113Z,6.10
2022-09-25T09:16:35.194Z,5.87
2022-09-25T09:21:39.825Z,5.50
2022-09-25T09:27:07.407Z,4.87
2022-09-25T09:32:29.870Z,4.10
2022-09-25T09:37:44.261Z,4.10
2022-09-25T09:42:56.325Z,4.37
2022-09-25T09:48:07.908Z,3.50
2022-09-25T09:53:22.457Z,3.60
2022-09-25T09:58:32.956Z,4.30
2022-09-25T10:03:40.491Z,3.97
2022-09-25T10:08:44.136Z,3.40
2022-09-25T10:13:49.141Z,3.63
2022-09-25T10:18:58.865Z,3.20
2022-09-25T10:24:03.566Z,3.30
2022-09-25T10:29:29.015Z,2.90
2022-09-25T10:34:33.288Z,2.87
2022-09-25T10:39:45.102Z,3.23
2022-09-25T10:44:57.091Z,2.90
2022-09-25T10:50:14.005Z,3.30
2022-09-25T10:55:30.311Z,3.20
2022-09-25T11:00:54.134Z,3.40
2022-09-25T11:06:00.244Z,3.07
2022-09-25T11:11:05.100Z,3.20
2022-09-25T11:16:10.687Z,3.30
2022-09-25T11:21:28.406Z,3.90
2022-09-25T11:26:35.981Z,3.63
2022-09-25T11:31:44.694Z,3.50
2022-09-25T11:36:51.890Z,3.60
2022-09-25T11:42:03.630Z,3.60
2022-09-25T11:47:17.076Z,4.03
2022-09-25T11:52:40.444Z,3.90
2022-09-25T11:57:56.174Z,3.90
2022-09-25T12:03:24.327Z,3.63
2022-09-25T12:08:42.487Z,3.20
2022-09-25T12:13:55.262Z,3.30
2022-09-25T12:19:11.044Z,3.50
2022-09-25T12:24:32.037Z,3.30
2022-09-25T12:29:50.269Z,3.07
2022-09-25T12:35:11.198Z,3.43
2022-09-25T12:40:23.123Z,3.83
2022-09-25T12:45:34.801Z,3.80
2022-09-25T12:50:46.832Z,3.47
2022-09-25T12:55:55.271Z,3.80
2022-09-25T13:01:04.611Z,3.70
2022-09-25T13:06:14.733Z,3.73
2022-09-25T13:11:28.142Z,2.97
2022-09-25T13:16:31.858Z,3.57
2022-09-25T13:21:38.107Z,3.30
2022-09-25T13:26:47.157Z,3.40
2022-09-25T13:31:53.708Z,3.90
2022-09-25T13:36:59.230Z,3.60
2022-09-25T13:42:07.820Z,4.30
2022-09-25T13:47:53.736Z,2.63
2022-09-25T13:53:27.753Z,2.70
2022-09-25T13:58:32.802Z,2.40
2022-09-25T14:03:39.622Z,2.00
2022-09-25T14:08:45.096Z,1.50
2022-09-25T14:13:51.531Z,1.70
2022-09-25T14:18:55.520Z,1.40
2022-09-25T14:24:15.482Z,0.80
2022-09-25T14:29:21.125Z,0.90
2022-09-25T14:34:40.149Z,1.00
2022-09-25T14:39:54.335Z,1.00
2022-09-25T14:45:12.877Z,0.70
2022-09-25T14:50:23.589Z,0.50
2022-09-25T14:55:35.332Z,0.67
2022-09-25T15:00:47.143Z,0.60
2022-09-25T15:05:51.591Z,0.70
2022-09-25T15:11:05.930Z,0.47
2022-09-25T15:16:33.213Z,0.80
2022-09-25T15:21:38.146Z,0.83
2022-09-25T15:26:51.883Z,0.60
2022-09-25T15:31:55.431Z,0.70
2022-09-25T15:37:17.023Z,1.00
2022-09-25T15:42:22.105Z,0.77
2022-09-25T15:47:52.538Z,1.10
2022-09-25T15:52:58.835Z,1.03
2022-09-25T15:58:15.518Z,1.17
2022-09-25T16:03:41.095Z,1.30
2022-09-25T16:08:45.147Z,1.17
2022-09-25T16:13:51.936Z,0.90
2022-09-25T16:18:57.322Z,1.00
2022-09-25T16:24:06.838Z,1.80
2022-09-25T16:29:22.644Z,1.20
2022-09-25T16:34:29.668Z,1.50
2022-09-25T16:39:36.832Z,1.87
2022-09-25T16:44:47.168Z,1.73
2022-09-25T16:49:50.876Z,2.80
2022-09-25T16:54:56.405Z,2.67
2022-09-25T17:00:01.415Z,2.63
2022-09-25T17:05:07.511Z,2.50
2022-09-25T17:10:15.399Z,2.90
2022-09-25T17:15:23.676Z,2.90
2022-09-25T17:20:28.420Z,2.70
2022-09-25T17:25:40.427Z,2.73
2022-09-25T17:30:46.175Z,2.33
2022-09-25T17:35:53.041Z,2.40
2022-09-25T17:41:03.171Z,2.63
2022-09-25T17:46:11.914Z,2.27
2022-09-25T17:51:18.448Z,2.00
2022-09-25T17:56:22.407Z,2.50
2022-09-25T18:01:29.237Z,2.30
2022-09-25T18:06:33.103Z,2.60
2022-09-25T18:11:42.619Z,2.70
2022-09-25T18:16:47.860Z,2.47
2022-09-25T18:22:10.961Z,2.70
2022-09-25T18:27:14.899Z,2.87
2022-09-25T18:32:20.089Z,2.40
2022-09-25T18:37:23.530Z,2.90
2022-09-25T18:42:27.050Z,2.63
2022-09-25T18:47:32.241Z,3.37
2022-09-25T18:52:35.695Z,3.20
2022-09-25T18:57:40.690Z,3.37
2022-09-25T19:02:45.897Z,3.30
2022-09-25T19:07:49.607Z,3.80
2022-09-25T19:12:53.089Z,3.53
2022-09-25T19:18:01.577Z,2.77
2022-09-25T19:23:06.255Z,3.53
2022-09-25T19:28:10.008Z,4.00
2022-09-25T19:33:14.872Z,3.77
2022-09-25T19:38:21.355Z,4.30
2022-09-25T19:43:28.454Z,5.00
2022-09-25T19:48:34.456Z,5.60
2022-09-25T19:53:40.617Z,5.43
2022-09-25T19:58:44.291Z,6.03
2022-09-25T20:03:49.321Z,8.10
2022-09-25T20:08:58.316Z,7.77
2022-09-25T20:14:03.573Z,7.27
2022-09-25T20:19:10.281Z,6.80
2022-09-25T20:24:14.015Z,7.63
2022-09-25T20:29:19.973Z,7.80
2022-09-25T20:34:25.005Z,8.57
2022-09-25T20:39:28.732Z,8.10
2022-09-25T20:44:32.272Z,7.60
2022-09-25T20:49:37.167Z,7.23
2022-09-25T20:54:42.034Z,7.00
2022-09-25T20:59:45.539Z,7.27
2022-09-25T21:04:51.268Z,7.00
2022-09-25T21:09:57.518Z,7.23
2022-09-25T21:15:00.929Z,5.90
2022-09-25T21:20:06.527Z,6.07
2022-09-25T21:25:10.890Z,6.00
2022-09-25T21:30:15.240Z,5.50
2022-09-25T21:35:20.258Z,4.97
2022-09-25T21:40:23.798Z,5.17
2022-09-25T21:45:27.408Z,4.73
2022-09-25T21:50:32.394Z,4.60
2022-09-25T21:55:35.834Z,4.87
2022-09-25T22:00:42.043Z,4.53
2022-09-25T22:05:49.345Z,4.93
2022-09-25T22:10:56.657Z,4.10
2022-09-25T22:16:05.407Z,4.70
2022-09-25T22:21:11.057Z,4.73
2022-09-25T22:26:15.676Z,3.87
2022-09-25T22:31:55.867Z,3.93
2022-09-25T22:37:00.941Z,3.93
2022-09-25T22:42:05.219Z,3.73
2022-09-25T22:47:08.648Z,4.33
2022-09-25T22:52:13.814Z,4.50
2022-09-25T22:57:17.288Z,4.13
2022-09-25T23:02:20.680Z,4.43
2022-09-25T23:07:25.768Z,3.97
2022-09-25T23:12:30.962Z,3.77
2022-09-25T23:17:34.487Z,3.50
2022-09-25T23:22:40.860Z,3.03
2022-09-25T23:27:44.328Z,2.70
2022-09-25T23:32:47.728Z,2.77
2022-09-25T23:37:52.614Z,3.13
2022-09-25T23:42:56.110Z,2.87
2022-09-25T23:48:02.655Z,2.93
2022-09-25T23:53:08.042Z,2.80
2022-09-25T23:58:11.771Z,2.63
